sensor_id;sensor_type;location;lat;lon;timestamp;P1;durP1;ratioP1;P2;durP2;ratioP2
16391;SDS011;8305;-33.882;151.134;2023-07-30T00:01:23;6.85;;;3.40;;
16391;SDS011;8305;-33.882;151.134;2023-07-30T00:03:54;5.30;;;3.20;;
16391;SDS011;8305;-33.882;151.134;2023-07-30T00:06:25;6.20;;;3.65;;
16391;SDS011;8305;-33.882;151.134;2023-07-30T00:08:58;6.82;;;3.42;;
16391;SDS011;8305;-33.882;151.134;2023-07-30T00:11:28;5.28;;;3.10;;
16391;SDS011;8305;-33.882;151.134;2023-07-30T00:13:59;3.90;;;2.80;;
16391;SDS011;8305;-33.882;151.134;2023-07-30T00:16:30;4.43;;;2.33;;
16391;SDS011;8305;-33.882;151.134;2023-07-30T00:19:01;3.95;;;2.33;;
16391;SDS011;8305;-33.882;151.134;2023-07-30T00:21:31;3.80;;;2.47;;
16391;SDS011;8305;-33.882;151.134;2023-07-30T00:24:04;3.03;;;2.00;;
16391;SDS011;8305;-33.882;151.134;2023-07-30T00:26:35;3.30;;;2.30;;
16391;SDS011;8305;-33.882;151.134;2023-07-30T00:29:06;2.83;;;1.67;;
16391;SDS011;8305;-33.882;151.134;2023-07-30T00:31:37;6.72;;;1.95;;
16391;SDS011;8305;-33.882;151.134;2023-07-30T00:34:07;3.20;;;1.70;;
16391;SDS011;8305;-33.882;151.134;2023-07-30T00:36:39;3.28;;;1.50;;
16391;SDS011;8305;-33.882;151.134;2023-07-30T00:39:11;2.88;;;1.50;;
16391;SDS011;8305;-33.882;151.134;2023-07-30T00:41:42;2.67;;;1.40;;
16391;SDS011;8305;-33.882;151.134;2023-07-30T00:44:13;1.40;;;1.23;;
16391;SDS011;8305;-33.882;151.134;2023-07-30T00:46:44;2.35;;;1.38;;
16391;SDS011;8305;-33.882;151.134;2023-07-30T00:49:15;1.73;;;0.93;;
16391;SDS011;8305;-33.882;151.134;2023-07-30T00:51:46;1.88;;;1.00;;
16391;SDS011;8305;-33.882;151.134;2023-07-30T00:54:19;3.38;;;1.20;;
16391;SDS011;8305;-33.882;151.134;2023-07-30T00:56:50;2.42;;;1.38;;
16391;SDS011;8305;-33.882;151.134;2023-07-30T00:59:22;2.10;;;1.20;;
16391;SDS011;8305;-33.882;151.134;2023-07-30T01:01:52;2.47;;;1.02;;
16391;SDS011;8305;-33.882;151.134;2023-07-30T01:04:25;3.53;;;1.20;;
16391;SDS011;8305;-33.882;151.134;2023-07-30T01:06:56;3.65;;;1.30;;
16391;SDS011;8305;-33.882;151.134;2023-07-30T01:09:28;1.90;;;1.25;;
16391;SDS011;8305;-33.882;151.134;2023-07-30T01:12:00;2.50;;;1.20;;
16391;SDS011;8305;-33.882;151.134;2023-07-30T01:14:31;2.72;;;1.00;;
16391;SDS011;8305;-33.882;151.134;2023-07-30T01:17:04;1.70;;;1.20;;
16391;SDS011;8305;-33.882;151.134;2023-07-30T01:19:35;1.55;;;0.95;;
16391;SDS011;8305;-33.882;151.134;2023-07-30T01:22:08;3.25;;;1.20;;
16391;SDS011;8305;-33.882;151.134;2023-07-30T01:24:38;3.95;;;1.45;;
16391;SDS011;8305;-33.882;151.134;2023-07-30T01:27:16;1.92;;;1.10;;
16391;SDS011;8305;-33.882;151.134;2023-07-30T01:29:52;4.57;;;1.20;;
16391;SDS011;8305;-33.882;151.134;2023-07-30T01:32:25;1.60;;;1.20;;
16391;SDS011;8305;-33.882;151.134;2023-07-30T01:34:57;1.60;;;1.10;;
16391;SDS011;8305;-33.882;151.134;2023-07-30T01:37:31;2.53;;;1.00;;
16391;SDS011;8305;-33.882;151.134;2023-07-30T01:40:03;2.40;;;1.20;;
16391;SDS011;8305;-33.882;151.134;2023-07-30T01:42:35;2.22;;;1.00;;
16391;SDS011;8305;-33.882;151.134;2023-07-30T01:45:06;3.10;;;0.95;;
16391;SDS011;8305;-33.882;151.134;2023-07-30T01:47:37;2.17;;;0.90;;
16391;SDS011;8305;-33.882;151.134;2023-07-30T01:50:08;2.53;;;0.90;;
16391;SDS011;8305;-33.882;151.134;2023-07-30T01:52:41;1.80;;;1.00;;
16391;SDS011;8305;-33.882;151.134;2023-07-30T01:55:11;1.42;;;0.90;;
16391;SDS011;8305;-33.882;151.134;2023-07-30T01:57:42;1.60;;;0.82;;
16391;SDS011;8305;-33.882;151.134;2023-07-30T02:00:13;1.00;;;0.82;;
16391;SDS011;8305;-33.882;151.134;2023-07-30T02:02:44;2.42;;;0.80;;
16391;SDS011;8305;-33.882;151.134;2023-07-30T02:05:15;0.95;;;0.70;;
16391;SDS011;8305;-33.882;151.134;2023-07-30T02:07:47;1.55;;;0.70;;
16391;SDS011;8305;-33.882;151.134;2023-07-30T02:10:18;1.42;;;0.82;;
16391;SDS011;8305;-33.882;151.134;2023-07-30T02:12:49;2.35;;;0.80;;
16391;SDS011;8305;-33.882;151.134;2023-07-30T02:15:20;0.90;;;0.80;;
16391;SDS011;8305;-33.882;151.134;2023-07-30T02:17:50;1.45;;;0.70;;
16391;SDS011;8305;-33.882;151.134;2023-07-30T02:20:21;1.90;;;0.70;;
16391;SDS011;8305;-33.882;151.134;2023-07-30T02:22:54;2.55;;;0.75;;
16391;SDS011;8305;-33.882;151.134;2023-07-30T02:25:25;0.60;;;0.60;;
16391;SDS011;8305;-33.882;151.134;2023-07-30T02:27:56;1.35;;;1.00;;
16391;SDS011;8305;-33.882;151.134;2023-07-30T02:30:28;1.42;;;0.77;;
16391;SDS011;8305;-33.882;151.134;2023-07-30T02:32:58;1.52;;;0.68;;
16391;SDS011;8305;-33.882;151.134;2023-07-30T02:35:29;1.30;;;0.77;;
16391;SDS011;8305;-33.882;151.134;2023-07-30T02:38:02;1.63;;;0.80;;
16391;SDS011;8305;-33.882;151.134;2023-07-30T02:40:33;1.77;;;0.80;;
16391;SDS011;8305;-33.882;151.134;2023-07-30T02:43:03;1.42;;;0.80;;
16391;SDS011;8305;-33.882;151.134;2023-07-30T02:45:34;0.80;;;0.80;;
16391;SDS011;8305;-33.882;151.134;2023-07-30T02:48:06;3.17;;;1.00;;
16391;SDS011;8305;-33.882;151.134;2023-07-30T02:50:37;0.75;;;0.60;;
16391;SDS011;8305;-33.882;151.134;2023-07-30T02:53:10;1.75;;;0.70;;
16391;SDS011;8305;-33.882;151.134;2023-07-30T02:55:40;0.90;;;0.60;;
16391;SDS011;8305;-33.882;151.134;2023-07-30T02:58:11;0.70;;;0.60;;
16391;SDS011;8305;-33.882;151.134;2023-07-30T03:00:42;2.03;;;0.80;;
16391;SDS011;8305;-33.882;151.134;2023-07-30T03:03:13;2.42;;;0.88;;
16391;SDS011;8305;-33.882;151.134;2023-07-30T03:05:43;1.17;;;0.90;;
16391;SDS011;8305;-33.882;151.134;2023-07-30T03:08:16;2.00;;;0.90;;
16391;SDS011;8305;-33.882;151.134;2023-07-30T03:10:47;1.92;;;1.00;;
16391;SDS011;8305;-33.882;151.134;2023-07-30T03:13:18;3.65;;;0.90;;
16391;SDS011;8305;-33.882;151.134;2023-07-30T03:15:48;1.77;;;0.85;;
16391;SDS011;8305;-33.882;151.134;2023-07-30T03:18:19;3.50;;;1.10;;
16391;SDS011;8305;-33.882;151.134;2023-07-30T03:20:50;1.20;;;0.77;;
16391;SDS011;8305;-33.882;151.134;2023-07-30T03:23:27;2.17;;;0.90;;
16391;SDS011;8305;-33.882;151.134;2023-07-30T03:25:58;1.35;;;0.95;;
16391;SDS011;8305;-33.882;151.134;2023-07-30T03:28:29;1.35;;;0.90;;
16391;SDS011;8305;-33.882;151.134;2023-07-30T03:31:00;1.50;;;0.70;;
16391;SDS011;8305;-33.882;151.134;2023-07-30T03:33:31;1.50;;;0.80;;
16391;SDS011;8305;-33.882;151.134;2023-07-30T03:36:02;1.63;;;0.90;;
16391;SDS011;8305;-33.882;151.134;2023-07-30T03:38:35;1.25;;;0.80;;
16391;SDS011;8305;-33.882;151.134;2023-07-30T03:41:05;1.75;;;0.93;;
16391;SDS011;8305;-33.882;151.134;2023-07-30T03:43:36;1.92;;;0.90;;
16391;SDS011;8305;-33.882;151.134;2023-07-30T03:46:07;0.73;;;0.70;;
16391;SDS011;8305;-33.882;151.134;2023-07-30T03:48:38;1.20;;;0.90;;
16391;SDS011;8305;-33.882;151.134;2023-07-30T03:51:09;1.40;;;0.90;;
16391;SDS011;8305;-33.882;151.134;2023-07-30T03:53:42;1.25;;;0.90;;
16391;SDS011;8305;-33.882;151.134;2023-07-30T03:56:12;1.00;;;0.90;;
16391;SDS011;8305;-33.882;151.134;2023-07-30T03:58:43;0.80;;;0.80;;
16391;SDS011;8305;-33.882;151.134;2023-07-30T04:01:14;1.63;;;0.70;;
16391;SDS011;8305;-33.882;151.134;2023-07-30T04:03:45;0.98;;;0.90;;
16391;SDS011;8305;-33.882;151.134;2023-07-30T04:06:15;1.35;;;0.80;;
16391;SDS011;8305;-33.882;151.134;2023-07-30T04:08:48;1.27;;;0.80;;
16391;SDS011;8305;-33.882;151.134;2023-07-30T04:11:20;1.17;;;0.80;;
16391;SDS011;8305;-33.882;151.134;2023-07-30T04:13:50;1.88;;;0.82;;
16391;SDS011;8305;-33.882;151.134;2023-07-30T04:16:21;1.35;;;1.00;;
16391;SDS011;8305;-33.882;151.134;2023-07-30T04:18:52;2.63;;;0.90;;
16391;SDS011;8305;-33.882;151.134;2023-07-30T04:21:23;1.45;;;0.82;;
16391;SDS011;8305;-33.882;151.134;2023-07-30T04:23:55;2.25;;;1.00;;
16391;SDS011;8305;-33.882;151.134;2023-07-30T04:26:26;2.15;;;0.95;;
16391;SDS011;8305;-33.882;151.134;2023-07-30T04:28:57;0.70;;;0.70;;
16391;SDS011;8305;-33.882;151.134;2023-07-30T04:31:28;1.35;;;0.80;;
16391;SDS011;8305;-33.882;151.134;2023-07-30T04:33:58;1.50;;;0.70;;
16391;SDS011;8305;-33.882;151.134;2023-07-30T04:36:29;1.20;;;0.90;;
16391;SDS011;8305;-33.882;151.134;2023-07-30T04:39:02;0.85;;;0.75;;
16391;SDS011;8305;-33.882;151.134;2023-07-30T04:41:33;1.10;;;0.85;;
16391;SDS011;8305;-33.882;151.134;2023-07-30T04:44:04;2.50;;;0.90;;
16391;SDS011;8305;-33.882;151.134;2023-07-30T04:46:35;1.17;;;0.88;;
16391;SDS011;8305;-33.882;151.134;2023-07-30T04:49:06;1.25;;;0.98;;
16391;SDS011;8305;-33.882;151.134;2023-07-30T04:51:36;1.67;;;0.80;;
16391;SDS011;8305;-33.882;151.134;2023-07-30T04:54:09;0.70;;;0.70;;
16391;SDS011;8305;-33.882;151.134;2023-07-30T04:56:40;1.58;;;0.98;;
16391;SDS011;8305;-33.882;151.134;2023-07-30T04:59:11;0.90;;;0.82;;
16391;SDS011;8305;-33.882;151.134;2023-07-30T05:01:41;2.03;;;0.80;;
16391;SDS011;8305;-33.882;151.134;2023-07-30T05:04:12;1.83;;;0.80;;
16391;SDS011;8305;-33.882;151.134;2023-07-30T05:06:43;2.88;;;0.88;;
16391;SDS011;8305;-33.882;151.134;2023-07-30T05:09:16;1.58;;;0.90;;
16391;SDS011;8305;-33.882;151.134;2023-07-30T05:11:46;1.05;;;0.90;;
16391;SDS011;8305;-33.882;151.134;2023-07-30T05:14:17;2.55;;;0.93;;
16391;SDS011;8305;-33.882;151.134;2023-07-30T05:16:48;0.82;;;0.80;;
16391;SDS011;8305;-33.882;151.134;2023-07-30T05:19:19;2.33;;;0.75;;
16391;SDS011;8305;-33.882;151.134;2023-07-30T05:21:50;1.45;;;0.90;;
16391;SDS011;8305;-33.882;151.134;2023-07-30T05:24:23;1.15;;;0.90;;
16391;SDS011;8305;-33.882;151.134;2023-07-30T05:26:54;2.22;;;1.00;;
16391;SDS011;8305;-33.882;151.134;2023-07-30T05:29:25;2.05;;;0.93;;
16391;SDS011;8305;-33.882;151.134;2023-07-30T05:31:56;1.98;;;1.00;;
16391;SDS011;8305;-33.882;151.134;2023-07-30T05:34:27;1.20;;;0.95;;
16391;SDS011;8305;-33.882;151.134;2023-07-30T05:36:57;1.45;;;0.90;;
16391;SDS011;8305;-33.882;151.134;2023-07-30T05:39:30;0.85;;;0.82;;
16391;SDS011;8305;-33.882;151.134;2023-07-30T05:42:01;1.52;;;1.00;;
16391;SDS011;8305;-33.882;151.134;2023-07-30T05:44:32;1.10;;;0.80;;
16391;SDS011;8305;-33.882;151.134;2023-07-30T05:47:03;1.10;;;0.90;;
16391;SDS011;8305;-33.882;151.134;2023-07-30T05:49:34;1.52;;;0.98;;
16391;SDS011;8305;-33.882;151.134;2023-07-30T05:52:05;1.60;;;0.93;;
16391;SDS011;8305;-33.882;151.134;2023-07-30T05:54:38;1.23;;;0.80;;
16391;SDS011;8305;-33.882;151.134;2023-07-30T05:57:09;1.73;;;0.90;;
16391;SDS011;8305;-33.882;151.134;2023-07-30T05:59:40;2.60;;;1.10;;
16391;SDS011;8305;-33.882;151.134;2023-07-30T06:02:10;2.45;;;1.00;;
16391;SDS011;8305;-33.882;151.134;2023-07-30T06:04:41;2.83;;;0.90;;
16391;SDS011;8305;-33.882;151.134;2023-07-30T06:07:12;0.98;;;0.90;;
16391;SDS011;8305;-33.882;151.134;2023-07-30T06:09:45;1.80;;;0.90;;
16391;SDS011;8305;-33.882;151.134;2023-07-30T06:12:15;1.27;;;0.80;;
16391;SDS011;8305;-33.882;151.134;2023-07-30T06:14:46;1.80;;;0.90;;
16391;SDS011;8305;-33.882;151.134;2023-07-30T06:17:17;1.17;;;0.90;;
16391;SDS011;8305;-33.882;151.134;2023-07-30T06:19:48;1.92;;;0.88;;
16391;SDS011;8305;-33.882;151.134;2023-07-30T06:22:18;2.30;;;0.90;;
16391;SDS011;8305;-33.882;151.134;2023-07-30T06:24:51;1.00;;;0.80;;
16391;SDS011;8305;-33.882;151.134;2023-07-30T06:27:22;2.05;;;0.82;;
16391;SDS011;8305;-33.882;151.134;2023-07-30T06:29:53;2.03;;;1.00;;
16391;SDS011;8305;-33.882;151.134;2023-07-30T06:32:24;1.00;;;0.90;;
16391;SDS011;8305;-33.882;151.134;2023-07-30T06:34:55;2.20;;;1.10;;
16391;SDS011;8305;-33.882;151.134;2023-07-30T06:37:25;1.05;;;0.80;;
16391;SDS011;8305;-33.882;151.134;2023-07-30T06:39:58;1.00;;;0.90;;
16391;SDS011;8305;-33.882;151.134;2023-07-30T06:42:30;1.23;;;0.90;;
16391;SDS011;8305;-33.882;151.134;2023-07-30T06:45:01;1.30;;;0.90;;
16391;SDS011;8305;-33.882;151.134;2023-07-30T06:47:32;0.75;;;0.70;;
16391;SDS011;8305;-33.882;151.134;2023-07-30T06:50:03;3.28;;;0.90;;
16391;SDS011;8305;-33.882;151.134;2023-07-30T06:52:36;1.70;;;0.93;;
16391;SDS011;8305;-33.882;151.134;2023-07-30T06:55:09;2.38;;;1.05;;
16391;SDS011;8305;-33.882;151.134;2023-07-30T06:57:40;1.33;;;1.00;;
16391;SDS011;8305;-33.882;151.134;2023-07-30T07:00:14;1.63;;;0.90;;
16391;SDS011;8305;-33.882;151.134;2023-07-30T07:02:48;1.83;;;1.13;;
16391;SDS011;8305;-33.882;151.134;2023-07-30T07:05:19;1.40;;;1.10;;
16391;SDS011;8305;-33.882;151.134;2023-07-30T07:07:49;1.70;;;0.90;;
16391;SDS011;8305;-33.882;151.134;2023-07-30T07:10:22;1.60;;;1.20;;
16391;SDS011;8305;-33.882;151.134;2023-07-30T07:12:53;1.40;;;1.25;;
16391;SDS011;8305;-33.882;151.134;2023-07-30T07:15:24;1.83;;;1.42;;
16391;SDS011;8305;-33.882;151.134;2023-07-30T07:17:55;3.22;;;1.33;;
16391;SDS011;8305;-33.882;151.134;2023-07-30T07:20:25;2.38;;;1.17;;
16391;SDS011;8305;-33.882;151.134;2023-07-30T07:22:56;2.03;;;1.30;;
16391;SDS011;8305;-33.882;151.134;2023-07-30T07:25:29;2.08;;;1.27;;
16391;SDS011;8305;-33.882;151.134;2023-07-30T07:28:00;2.05;;;1.10;;
16391;SDS011;8305;-33.882;151.134;2023-07-30T07:30:31;2.45;;;1.38;;
16391;SDS011;8305;-33.882;151.134;2023-07-30T07:33:03;2.50;;;1.10;;
16391;SDS011;8305;-33.882;151.134;2023-07-30T07:35:37;1.92;;;1.20;;
16391;SDS011;8305;-33.882;151.134;2023-07-30T07:38:08;1.55;;;1.20;;
16391;SDS011;8305;-33.882;151.134;2023-07-30T07:40:41;2.08;;;1.25;;
16391;SDS011;8305;-33.882;151.134;2023-07-30T07:43:12;2.05;;;1.40;;
16391;SDS011;8305;-33.882;151.134;2023-07-30T07:45:43;1.70;;;1.48;;
16391;SDS011;8305;-33.882;151.134;2023-07-30T07:48:14;2.67;;;1.58;;
16391;SDS011;8305;-33.882;151.134;2023-07-30T07:50:45;4.38;;;1.70;;
16391;SDS011;8305;-33.882;151.134;2023-07-30T07:53:16;2.63;;;1.50;;
16391;SDS011;8305;-33.882;151.134;2023-07-30T07:55:48;2.78;;;1.40;;
16391;SDS011;8305;-33.882;151.134;2023-07-30T07:58:19;2.13;;;1.40;;
16391;SDS011;8305;-33.882;151.134;2023-07-30T08:00:50;2.85;;;1.42;;
16391;SDS011;8305;-33.882;151.134;2023-07-30T08:03:23;2.72;;;1.60;;
16391;SDS011;8305;-33.882;151.134;2023-07-30T08:05:55;2.47;;;1.58;;
16391;SDS011;8305;-33.882;151.134;2023-07-30T08:08:25;2.50;;;1.60;;
16391;SDS011;8305;-33.882;151.134;2023-07-30T08:10:58;4.25;;;1.70;;
16391;SDS011;8305;-33.882;151.134;2023-07-30T08:13:43;3.53;;;1.73;;
16391;SDS011;8305;-33.882;151.134;2023-07-30T08:16:17;3.15;;;2.00;;
16391;SDS011;8305;-33.882;151.134;2023-07-30T08:18:48;2.17;;;1.80;;
16391;SDS011;8305;-33.882;151.134;2023-07-30T08:21:19;2.88;;;1.85;;
16391;SDS011;8305;-33.882;151.134;2023-07-30T08:23:49;4.15;;;1.80;;
16391;SDS011;8305;-33.882;151.134;2023-07-30T08:26:22;2.65;;;1.92;;
16391;SDS011;8305;-33.882;151.134;2023-07-30T08:28:53;1.85;;;1.70;;
16391;SDS011;8305;-33.882;151.134;2023-07-30T08:31:24;2.45;;;1.63;;
16391;SDS011;8305;-33.882;151.134;2023-07-30T08:33:55;3.40;;;1.75;;
16391;SDS011;8305;-33.882;151.134;2023-07-30T08:36:25;2.50;;;1.55;;
16391;SDS011;8305;-33.882;151.134;2023-07-30T08:38:56;3.10;;;1.95;;
16391;SDS011;8305;-33.882;151.134;2023-07-30T08:41:29;3.67;;;2.00;;
16391;SDS011;8305;-33.882;151.134;2023-07-30T08:44:00;2.40;;;1.90;;
16391;SDS011;8305;-33.882;151.134;2023-07-30T08:46:30;5.18;;;2.17;;
16391;SDS011;8305;-33.882;151.134;2023-07-30T08:49:01;3.22;;;2.10;;
16391;SDS011;8305;-33.882;151.134;2023-07-30T08:51:32;5.78;;;2.72;;
16391;SDS011;8305;-33.882;151.134;2023-07-30T08:54:05;4.95;;;2.97;;
16391;SDS011;8305;-33.882;151.134;2023-07-30T08:56:40;5.28;;;3.17;;
16391;SDS011;8305;-33.882;151.134;2023-07-30T08:59:12;3.75;;;2.70;;
16391;SDS011;8305;-33.882;151.134;2023-07-30T09:01:44;4.60;;;2.72;;
16391;SDS011;8305;-33.882;151.134;2023-07-30T09:04:16;4.38;;;2.95;;
16391;SDS011;8305;-33.882;151.134;2023-07-30T09:06:48;4.45;;;3.00;;
16391;SDS011;8305;-33.882;151.134;2023-07-30T09:09:19;5.25;;;3.00;;
16391;SDS011;8305;-33.882;151.134;2023-07-30T09:11:53;4.65;;;2.80;;
16391;SDS011;8305;-33.882;151.134;2023-07-30T09:14:26;3.47;;;2.63;;
16391;SDS011;8305;-33.882;151.134;2023-07-30T09:16:57;4.90;;;2.50;;
16391;SDS011;8305;-33.882;151.134;2023-07-30T09:19:28;6.90;;;3.10;;
16391;SDS011;8305;-33.882;151.134;2023-07-30T09:22:04;3.80;;;2.80;;
16391;SDS011;8305;-33.882;151.134;2023-07-30T09:24:35;4.70;;;3.00;;
16391;SDS011;8305;-33.882;151.134;2023-07-30T09:27:12;4.70;;;3.50;;
16391;SDS011;8305;-33.882;151.134;2023-07-30T09:29:50;4.50;;;3.30;;
16391;SDS011;8305;-33.882;151.134;2023-07-30T09:32:24;5.45;;;3.05;;
16391;SDS011;8305;-33.882;151.134;2023-07-30T09:34:57;6.53;;;3.28;;
16391;SDS011;8305;-33.882;151.134;2023-07-30T09:37:36;6.30;;;3.70;;
16391;SDS011;8305;-33.882;151.134;2023-07-30T09:40:08;6.18;;;3.50;;
16391;SDS011;8305;-33.882;151.134;2023-07-30T09:42:44;5.00;;;2.80;;
16391;SDS011;8305;-33.882;151.134;2023-07-30T09:45:17;4.60;;;2.63;;
16391;SDS011;8305;-33.882;151.134;2023-07-30T09:47:50;3.50;;;2.40;;
16391;SDS011;8305;-33.882;151.134;2023-07-30T09:50:22;3.67;;;2.42;;
16391;SDS011;8305;-33.882;151.134;2023-07-30T09:52:53;3.38;;;2.40;;
16391;SDS011;8305;-33.882;151.134;2023-07-30T09:55:25;4.03;;;2.33;;
16391;SDS011;8305;-33.882;151.134;2023-07-30T09:57:57;3.72;;;2.40;;
16391;SDS011;8305;-33.882;151.134;2023-07-30T10:00:29;4.20;;;2.47;;
16391;SDS011;8305;-33.882;151.134;2023-07-30T10:03:00;4.15;;;2.75;;
16391;SDS011;8305;-33.882;151.134;2023-07-30T10:05:33;4.90;;;2.60;;
16391;SDS011;8305;-33.882;151.134;2023-07-30T10:08:05;3.22;;;2.28;;
16391;SDS011;8305;-33.882;151.134;2023-07-30T10:10:38;4.20;;;2.30;;
16391;SDS011;8305;-33.882;151.134;2023-07-30T10:13:10;2.22;;;2.00;;
16391;SDS011;8305;-33.882;151.134;2023-07-30T10:15:43;3.47;;;2.25;;
16391;SDS011;8305;-33.882;151.134;2023-07-30T10:18:14;2.58;;;2.10;;
16391;SDS011;8305;-33.882;151.134;2023-07-30T10:20:46;3.38;;;1.88;;
16391;SDS011;8305;-33.882;151.134;2023-07-30T10:23:26;2.45;;;2.00;;
16391;SDS011;8305;-33.882;151.134;2023-07-30T10:26:09;2.55;;;1.90;;
16391;SDS011;8305;-33.882;151.134;2023-07-30T10:28:42;4.25;;;2.10;;
16391;SDS011;8305;-33.882;151.134;2023-07-30T10:31:13;3.05;;;1.95;;
16391;SDS011;8305;-33.882;151.134;2023-07-30T10:33:45;3.45;;;2.08;;
16391;SDS011;8305;-33.882;151.134;2023-07-30T10:36:20;4.70;;;1.80;;
16391;SDS011;8305;-33.882;151.134;2023-07-30T10:39:01;3.13;;;1.95;;
16391;SDS011;8305;-33.882;151.134;2023-07-30T10:41:42;4.30;;;2.00;;
16391;SDS011;8305;-33.882;151.134;2023-07-30T10:44:25;3.13;;;1.90;;
16391;SDS011;8305;-33.882;151.134;2023-07-30T10:46:58;4.78;;;2.35;;
16391;SDS011;8305;-33.882;151.134;2023-07-30T10:49:30;4.25;;;1.88;;
16391;SDS011;8305;-33.882;151.134;2023-07-30T10:52:06;3.72;;;2.15;;
16391;SDS011;8305;-33.882;151.134;2023-07-30T10:54:38;2.42;;;1.73;;
16391;SDS011;8305;-33.882;151.134;2023-07-30T10:57:08;4.25;;;1.70;;
16391;SDS011;8305;-33.882;151.134;2023-07-30T10:59:41;1.83;;;1.52;;
16391;SDS011;8305;-33.882;151.134;2023-07-30T11:02:12;3.00;;;1.60;;
16391;SDS011;8305;-33.882;151.134;2023-07-30T11:04:45;4.80;;;1.50;;
16391;SDS011;8305;-33.882;151.134;2023-07-30T11:07:17;3.00;;;1.90;;
16391;SDS011;8305;-33.882;151.134;2023-07-30T11:09:58;4.80;;;1.60;;
16391;SDS011;8305;-33.882;151.134;2023-07-30T11:12:29;4.60;;;1.45;;
16391;SDS011;8305;-33.882;151.134;2023-07-30T11:15:03;1.67;;;1.30;;
16391;SDS011;8305;-33.882;151.134;2023-07-30T11:17:35;2.22;;;1.20;;
16391;SDS011;8305;-33.882;151.134;2023-07-30T11:20:06;2.95;;;1.33;;
16391;SDS011;8305;-33.882;151.134;2023-07-30T11:22:37;2.83;;;1.27;;
16391;SDS011;8305;-33.882;151.134;2023-07-30T11:25:16;1.83;;;1.40;;
16391;SDS011;8305;-33.882;151.134;2023-07-30T11:27:47;2.42;;;1.17;;
16391;SDS011;8305;-33.882;151.134;2023-07-30T11:30:20;1.63;;;1.40;;
16391;SDS011;8305;-33.882;151.134;2023-07-30T11:32:54;2.08;;;1.23;;
16391;SDS011;8305;-33.882;151.134;2023-07-30T11:35:26;2.05;;;1.33;;
16391;SDS011;8305;-33.882;151.134;2023-07-30T11:37:57;2.55;;;1.38;;
16391;SDS011;8305;-33.882;151.134;2023-07-30T11:40:28;1.52;;;1.30;;
16391;SDS011;8305;-33.882;151.134;2023-07-30T11:42:59;3.30;;;1.42;;
16391;SDS011;8305;-33.882;151.134;2023-07-30T11:45:31;1.65;;;1.15;;
16391;SDS011;8305;-33.882;151.134;2023-07-30T11:48:08;2.17;;;1.25;;
16391;SDS011;8305;-33.882;151.134;2023-07-30T11:50:46;3.00;;;1.30;;
16391;SDS011;8305;-33.882;151.134;2023-07-30T11:53:21;3.75;;;1.48;;
16391;SDS011;8305;-33.882;151.134;2023-07-30T11:56:15;3.53;;;1.50;;
16391;SDS011;8305;-33.882;151.134;2023-07-30T11:58:50;1.92;;;1.20;;
16391;SDS011;8305;-33.882;151.134;2023-07-30T12:01:25;1.50;;;1.40;;
16391;SDS011;8305;-33.882;151.134;2023-07-30T12:03:58;2.60;;;1.30;;
16391;SDS011;8305;-33.882;151.134;2023-07-30T12:06:39;1.77;;;1.30;;
16391;SDS011;8305;-33.882;151.134;2023-07-30T12:09:10;2.90;;;1.48;;
16391;SDS011;8305;-33.882;151.134;2023-07-30T12:11:49;2.88;;;1.60;;
16391;SDS011;8305;-33.882;151.134;2023-07-30T12:14:21;2.58;;;1.60;;
16391;SDS011;8305;-33.882;151.134;2023-07-30T12:16:58;1.67;;;1.20;;
16391;SDS011;8305;-33.882;151.134;2023-07-30T12:19:29;2.03;;;1.10;;
16391;SDS011;8305;-33.882;151.134;2023-07-30T12:22:02;2.42;;;1.30;;
16391;SDS011;8305;-33.882;151.134;2023-07-30T12:24:33;2.80;;;1.55;;
16391;SDS011;8305;-33.882;151.134;2023-07-30T12:27:03;2.20;;;1.30;;
16391;SDS011;8305;-33.882;151.134;2023-07-30T12:29:34;2.28;;;1.30;;
16391;SDS011;8305;-33.882;151.134;2023-07-30T12:32:07;2.97;;;1.50;;
16391;SDS011;8305;-33.882;151.134;2023-07-30T12:34:38;2.72;;;1.30;;
16391;SDS011;8305;-33.882;151.134;2023-07-30T12:37:09;2.28;;;1.38;;
16391;SDS011;8305;-33.882;151.134;2023-07-30T12:39:40;3.15;;;1.63;;
16391;SDS011;8305;-33.882;151.134;2023-07-30T12:42:10;2.67;;;1.35;;
16391;SDS011;8305;-33.882;151.134;2023-07-30T12:44:41;4.82;;;1.30;;
16391;SDS011;8305;-33.882;151.134;2023-07-30T12:47:14;2.03;;;1.38;;
16391;SDS011;8305;-33.882;151.134;2023-07-30T12:49:45;1.48;;;1.15;;
16391;SDS011;8305;-33.882;151.134;2023-07-30T12:52:15;3.08;;;1.30;;
16391;SDS011;8305;-33.882;151.134;2023-07-30T12:54:46;2.67;;;1.52;;
16391;SDS011;8305;-33.882;151.134;2023-07-30T12:57:17;1.90;;;1.45;;
16391;SDS011;8305;-33.882;151.134;2023-07-30T12:59:48;1.58;;;1.20;;
16391;SDS011;8305;-33.882;151.134;2023-07-30T13:02:21;2.78;;;1.40;;
16391;SDS011;8305;-33.882;151.134;2023-07-30T13:04:52;2.65;;;1.38;;
16391;SDS011;8305;-33.882;151.134;2023-07-30T13:07:22;2.47;;;1.75;;
16391;SDS011;8305;-33.882;151.134;2023-07-30T13:10:02;3.08;;;1.70;;
16391;SDS011;8305;-33.882;151.134;2023-07-30T13:12:34;3.30;;;1.88;;
16391;SDS011;8305;-33.882;151.134;2023-07-30T13:15:05;2.53;;;1.63;;
16391;SDS011;8305;-33.882;151.134;2023-07-30T13:17:38;2.53;;;1.45;;
16391;SDS011;8305;-33.882;151.134;2023-07-30T13:20:09;3.65;;;1.95;;
16391;SDS011;8305;-33.882;151.134;2023-07-30T13:22:40;4.50;;;1.80;;
16391;SDS011;8305;-33.882;151.134;2023-07-30T13:25:11;3.22;;;2.05;;
16391;SDS011;8305;-33.882;151.134;2023-07-30T13:27:42;3.53;;;2.00;;
16391;SDS011;8305;-33.882;151.134;2023-07-30T13:30:12;2.83;;;1.98;;
16391;SDS011;8305;-33.882;151.134;2023-07-30T13:32:45;3.70;;;2.08;;
16391;SDS011;8305;-33.882;151.134;2023-07-30T13:35:16;4.07;;;2.10;;
16391;SDS011;8305;-33.882;151.134;2023-07-30T13:37:46;2.83;;;1.95;;
16391;SDS011;8305;-33.882;151.134;2023-07-30T13:40:17;2.83;;;2.00;;
16391;SDS011;8305;-33.882;151.134;2023-07-30T13:42:48;3.15;;;2.00;;
16391;SDS011;8305;-33.882;151.134;2023-07-30T13:45:19;2.50;;;1.83;;
16391;SDS011;8305;-33.882;151.134;2023-07-30T13:47:51;3.38;;;1.92;;
16391;SDS011;8305;-33.882;151.134;2023-07-30T13:50:22;2.70;;;1.90;;
16391;SDS011;8305;-33.882;151.134;2023-07-30T13:52:53;2.97;;;1.75;;
16391;SDS011;8305;-33.882;151.134;2023-07-30T13:55:24;3.53;;;1.85;;
16391;SDS011;8305;-33.882;151.134;2023-07-30T13:57:54;2.90;;;1.80;;
16391;SDS011;8305;-33.882;151.134;2023-07-30T14:00:25;2.67;;;1.80;;
16391;SDS011;8305;-33.882;151.134;2023-07-30T14:02:58;3.15;;;2.00;;
16391;SDS011;8305;-33.882;151.134;2023-07-30T14:05:29;3.95;;;2.00;;
16391;SDS011;8305;-33.882;151.134;2023-07-30T14:08:00;2.97;;;1.90;;
16391;SDS011;8305;-33.882;151.134;2023-07-30T14:10:31;3.90;;;2.00;;
16391;SDS011;8305;-33.882;151.134;2023-07-30T14:13:02;3.65;;;2.10;;
16391;SDS011;8305;-33.882;151.134;2023-07-30T14:15:32;3.92;;;2.10;;
16391;SDS011;8305;-33.882;151.134;2023-07-30T14:18:05;3.75;;;2.00;;
16391;SDS011;8305;-33.882;151.134;2023-07-30T14:20:36;4.05;;;2.10;;
16391;SDS011;8305;-33.882;151.134;2023-07-30T14:23:07;4.35;;;2.10;;
16391;SDS011;8305;-33.882;151.134;2023-07-30T14:25:38;3.60;;;2.00;;
16391;SDS011;8305;-33.882;151.134;2023-07-30T14:28:08;3.60;;;2.20;;
16391;SDS011;8305;-33.882;151.134;2023-07-30T14:30:40;4.05;;;2.20;;
16391;SDS011;8305;-33.882;151.134;2023-07-30T14:33:14;6.10;;;2.88;;
16391;SDS011;8305;-33.882;151.134;2023-07-30T14:35:44;3.05;;;2.20;;
16391;SDS011;8305;-33.882;151.134;2023-07-30T14:38:15;3.85;;;2.30;;
16391;SDS011;8305;-33.882;151.134;2023-07-30T14:40:46;5.32;;;2.40;;
16391;SDS011;8305;-33.882;151.134;2023-07-30T14:43:17;3.95;;;2.08;;
16391;SDS011;8305;-33.882;151.134;2023-07-30T14:45:48;3.40;;;2.13;;
16391;SDS011;8305;-33.882;151.134;2023-07-30T14:48:21;2.33;;;1.77;;